createdAt,value
2017-11-23T00:01:49.284Z,5.70
2017-11-23T00:04:16.824Z,5.70
2017-11-23T00:06:45.098Z,5.60
2017-11-23T00:09:13.406Z,5.60
2017-11-23T00:11:40.943Z,5.60
2017-11-23T00:14:08.487Z,5.50
2017-11-23T00:16:36.799Z,5.60
2017-11-23T00:19:04.315Z,5.50
2017-11-23T00:21:32.611Z,5.60
2017-11-23T00:24:00.934Z,5.60
2017-11-23T00:26:28.455Z,5.60
2017-11-23T00:28:55.970Z,5.60
2017-11-23T00:31:23.514Z,5.50
2017-11-23T00:33:51.029Z,5.60
2017-11-23T00:36:18.539Z,5.50
2017-11-23T00:38:46.095Z,5.50
2017-11-23T00:41:13.604Z,5.50
2017-11-23T00:43:41.886Z,5.40
2017-11-23T00:46:09.437Z,5.40
2017-11-23T00:48:37.780Z,5.40
2017-11-23T00:51:05.299Z,5.40
2017-11-23T00:53:32.818Z,5.40
2017-11-23T00:56:00.384Z,5.40
2017-11-23T00:58:27.896Z,5.50
2017-11-23T01:00:55.411Z,5.50
2017-11-23T01:03:23.725Z,5.30
2017-11-23T01:05:51.236Z,5.30
2017-11-23T01:08:18.743Z,5.30
2017-11-23T01:10:46.289Z,5.30
2017-11-23T01:13:13.798Z,5.30
2017-11-23T01:15:41.315Z,5.30
2017-11-23T01:18:08.849Z,5.30
2017-11-23T01:20:36.396Z,5.30
2017-11-23T01:23:03.901Z,5.30
2017-11-23T01:25:31.422Z,5.30
2017-11-23T01:27:58.981Z,5.30
2017-11-23T01:30:26.484Z,5.30
2017-11-23T01:32:53.998Z,5.30
2017-11-23T01:35:21.543Z,5.30
2017-11-23T01:37:49.070Z,5.20
2017-11-23T01:40:16.598Z,5.30
2017-11-23T01:42:44.897Z,5.30
2017-11-23T01:45:12.427Z,5.30
2017-11-23T01:47:40.706Z,5.30
2017-11-23T01:50:09.010Z,5.30
2017-11-23T01:52:36.526Z,5.30
2017-11-23T01:55:04.052Z,5.20
2017-11-23T01:57:31.615Z,5.10
2017-11-23T01:59:59.150Z,5.10
2017-11-23T02:02:26.716Z,5.20
2017-11-23T02:04:54.257Z,5.30
2017-11-23T02:07:21.779Z,5.20
2017-11-23T02:09:49.321Z,5.20
2017-11-23T02:12:16.842Z,5.20
2017-11-23T02:14:44.371Z,5.30
2017-11-23T02:17:13.010Z,5.30
2017-11-23T02:19:40.646Z,5.20
2017-11-23T02:22:08.174Z,5.20
2017-11-23T02:24:35.734Z,5.30
2017-11-23T02:27:03.259Z,5.30
2017-11-23T02:29:30.774Z,5.30
2017-11-23T02:31:58.319Z,5.30
2017-11-23T02:34:25.862Z,5.20
2017-11-23T02:36:53.384Z,5.20
2017-11-23T02:39:20.930Z,5.20
2017-11-23T02:41:48.455Z,5.20
2017-11-23T02:44:16.015Z,5.20
2017-11-23T02:46:43.543Z,5.10
2017-11-23T02:49:11.066Z,5.10
2017-11-23T02:51:38.627Z,5.10
2017-11-23T02:54:06.154Z,5.10
2017-11-23T02:56:34.439Z,5.10
2017-11-23T02:59:02.769Z,5.10
2017-11-23T03:01:30.292Z,5.10
2017-11-23T03:03:57.809Z,5.10
2017-11-23T03:06:25.351Z,5.10
2017-11-23T03:08:52.873Z,5.10
2017-11-23T03:11:20.406Z,5.10
2017-11-23T03:13:47.919Z,5.10
2017-11-23T03:16:15.422Z,5.10
2017-11-23T03:18:42.983Z,5.10
2017-11-23T03:21:10.526Z,5.10
2017-11-23T03:23:39.403Z,4.90
2017-11-23T03:26:06.946Z,4.90
2017-11-23T03:28:34.473Z,5.00
2017-11-23T03:31:02.769Z,4.90
2017-11-23T03:33:30.332Z,4.90
2017-11-23T03:35:57.851Z,4.90
2017-11-23T03:38:25.358Z,4.90
2017-11-23T03:40:52.894Z,4.80
2017-11-23T03:43:20.422Z,4.80
2017-11-23T03:45:47.966Z,4.70
2017-11-23T03:48:15.495Z,4.70
2017-11-23T03:50:43.017Z,4.60
2017-11-23T03:53:11.335Z,4.60
2017-11-23T03:55:38.871Z,4.60
2017-11-23T03:58:06.399Z,4.60
2017-11-23T04:00:33.940Z,4.60
2017-11-23T04:03:01.470Z,4.50
2017-11-23T04:05:29.025Z,4.50
2017-11-23T04:07:56.587Z,4.50
2017-11-23T04:10:24.116Z,4.40
2017-11-23T04:12:52.432Z,4.40
2017-11-23T04:15:19.946Z,4.40
2017-11-23T04:17:47.454Z,4.40
2017-11-23T04:20:14.999Z,4.40
2017-11-23T04:22:42.509Z,4.40
2017-11-23T04:25:10.058Z,4.40
2017-11-23T04:27:37.560Z,4.50
2017-11-23T04:30:05.079Z,4.40
2017-11-23T04:32:32.661Z,4.40
2017-11-23T04:35:00.957Z,4.30
2017-11-23T04:37:29.255Z,4.30
2017-11-23T04:39:56.794Z,4.20
2017-11-23T04:42:24.308Z,4.20
2017-11-23T04:44:51.833Z,4.20
2017-11-23T04:47:19.383Z,4.30
2017-11-23T04:49:46.900Z,4.30
2017-11-23T04:52:14.436Z,4.30
2017-11-23T04:54:41.958Z,4.30
2017-11-23T04:57:09.468Z,4.30
2017-11-23T04:59:37.008Z,4.20
2017-11-23T05:02:04.523Z,4.20
2017-11-23T05:04:32.814Z,4.20
2017-11-23T05:07:00.371Z,4.20
2017-11-23T05:09:28.655Z,4.30
2017-11-23T05:11:56.255Z,4.30
2017-11-23T05:14:23.793Z,4.20
2017-11-23T05:16:51.330Z,4.20
2017-11-23T05:19:18.863Z,4.10
2017-11-23T05:21:46.410Z,4.20
2017-11-23T05:24:13.927Z,4.20
2017-11-23T05:26:41.445Z,4.30
2017-11-23T05:29:08.993Z,4.30
2017-11-23T05:31:36.590Z,4.20
2017-11-23T05:34:04.870Z,4.20
2017-11-23T05:36:32.426Z,4.20
2017-11-23T05:38:59.943Z,4.20
2017-11-23T05:41:27.478Z,4.20
2017-11-23T05:43:55.034Z,4.20
2017-11-23T05:46:22.559Z,4.20
2017-11-23T05:48:50.846Z,4.10
2017-11-23T05:51:18.395Z,4.10
2017-11-23T05:53:46.679Z,4.10
2017-11-23T05:56:14.985Z,4.10
2017-11-23T05:58:42.551Z,4.10
2017-11-23T06:01:10.094Z,4.00
2017-11-23T06:03:37.630Z,4.00
2017-11-23T06:06:05.940Z,4.10
2017-11-23T06:08:33.450Z,4.10
2017-11-23T06:11:00.968Z,4.10
2017-11-23T06:13:28.498Z,4.10
2017-11-23T06:15:56.022Z,4.10
2017-11-23T06:18:23.560Z,4.10
2017-11-23T06:20:51.078Z,4.10
2017-11-23T06:23:19.346Z,4.20
2017-11-23T06:25:47.663Z,4.20
2017-11-23T06:28:15.178Z,4.20
2017-11-23T06:30:42.712Z,4.20
2017-11-23T06:33:10.254Z,4.20
2017-11-23T06:35:37.761Z,4.20
2017-11-23T06:38:05.300Z,4.20
2017-11-23T06:40:32.803Z,4.20
2017-11-23T06:43:00.307Z,4.20
2017-11-23T06:45:27.856Z,4.20
2017-11-23T06:47:55.366Z,4.20
2017-11-23T06:50:22.910Z,4.10
2017-11-23T06:52:51.197Z,4.10
2017-11-23T06:55:18.714Z,4.10
2017-11-23T06:57:46.265Z,4.10
2017-11-23T07:00:13.798Z,4.20
2017-11-23T07:02:41.328Z,4.20
2017-11-23T07:05:09.633Z,4.40
2017-11-23T07:07:37.409Z,4.40
2017-11-23T07:10:04.929Z,4.50
2017-11-23T07:12:33.235Z,4.60
2017-11-23T07:15:00.759Z,4.60
2017-11-23T07:17:28.274Z,4.60
2017-11-23T07:19:55.813Z,4.70
2017-11-23T07:22:23.339Z,4.70
2017-11-23T07:24:50.877Z,4.80
2017-11-23T07:27:18.402Z,4.80
2017-11-23T07:29:45.910Z,4.80
2017-11-23T07:32:13.462Z,4.80
2017-11-23T07:34:40.973Z,4.80
2017-11-23T07:37:08.479Z,4.90
2017-11-23T07:39:36.036Z,4.90
2017-11-23T07:42:04.310Z,5.10
2017-11-23T07:44:31.855Z,5.10
2017-11-23T07:46:59.404Z,5.10
2017-11-23T07:49:26.922Z,5.10
2017-11-23T07:51:55.198Z,5.20
2017-11-23T07:54:23.516Z,5.30
2017-11-23T07:56:51.026Z,5.30
2017-11-23T07:59:18.572Z,5.40
2017-11-23T08:01:46.085Z,5.50
2017-11-23T08:04:13.631Z,5.60
2017-11-23T08:06:41.160Z,5.70
2017-11-23T08:09:08.687Z,5.80
2017-11-23T08:11:36.218Z,5.90
2017-11-23T08:14:03.776Z,6.00
2017-11-23T08:16:31.297Z,6.10
2017-11-23T08:18:58.811Z,6.20
2017-11-23T08:21:26.994Z,6.40
2017-11-23T08:23:54.507Z,6.60
2017-11-23T08:26:22.787Z,6.90
2017-11-23T08:28:50.322Z,6.90
2017-11-23T08:31:17.825Z,7.00
2017-11-23T08:33:45.370Z,7.20
2017-11-23T08:36:12.878Z,7.20
2017-11-23T08:38:41.150Z,7.50
2017-11-23T08:41:08.694Z,7.50
2017-11-23T08:43:36.211Z,7.60
2017-11-23T08:46:03.736Z,7.70
2017-11-23T08:48:31.287Z,7.70
2017-11-23T08:50:58.790Z,7.80
2017-11-23T08:53:26.299Z,7.80
2017-11-23T08:55:53.844Z,7.90
2017-11-23T08:58:21.362Z,8.00
2017-11-23T09:00:48.879Z,8.10
2017-11-23T09:03:22.889Z,8.20
2017-11-23T09:05:50.405Z,8.20
2017-11-23T09:08:18.684Z,8.30
2017-11-23T09:10:46.986Z,8.40
2017-11-23T09:13:14.507Z,8.40
2017-11-23T09:15:42.028Z,8.40
2017-11-23T09:18:09.566Z,8.50
2017-11-23T09:20:37.072Z,8.60
2017-11-23T09:23:04.619Z,8.60
2017-11-23T09:25:32.149Z,8.60
2017-11-23T09:27:59.666Z,8.70
2017-11-23T09:30:27.227Z,8.80
2017-11-23T09:32:54.743Z,8.90
2017-11-23T09:35:23.009Z,9.10
2017-11-23T09:37:50.549Z,9.10
2017-11-23T09:40:18.060Z,9.10
2017-11-23T09:42:45.569Z,9.20
2017-11-23T09:45:13.107Z,9.30
2017-11-23T09:47:40.620Z,9.40
2017-11-23T09:50:08.122Z,9.40
2017-11-23T09:52:35.667Z,9.40
2017-11-23T09:55:03.190Z,9.50
2017-11-23T09:57:30.714Z,9.60
2017-11-23T09:59:59.018Z,9.60
2017-11-23T10:02:26.535Z,9.60
2017-11-23T10:04:54.045Z,9.80
2017-11-23T10:07:21.590Z,9.90
2017-11-23T10:09:49.099Z,10.00
2017-11-23T10:12:16.610Z,10.00
2017-11-23T10:14:45.105Z,10.10
2017-11-23T10:17:12.622Z,10.10
2017-11-23T10:19:40.143Z,10.20
2017-11-23T10:22:07.683Z,10.30
2017-11-23T10:24:35.192Z,10.40
2017-11-23T10:27:02.709Z,10.40
2017-11-23T10:29:30.256Z,10.50
2017-11-23T10:31:57.766Z,10.60
2017-11-23T10:34:25.286Z,10.70
2017-11-23T10:36:52.822Z,10.80
2017-11-23T10:39:20.338Z,11.00
2017-11-23T10:41:47.874Z,11.00
2017-11-23T10:44:15.388Z,11.10
2017-11-23T10:46:42.937Z,11.10
2017-11-23T10:49:11.231Z,11.30
2017-11-23T10:51:39.506Z,11.30
2017-11-23T10:54:07.858Z,11.50
2017-11-23T10:56:35.402Z,11.40
2017-11-23T10:59:02.939Z,11.50
2017-11-23T11:01:30.491Z,11.70
2017-11-23T11:03:58.028Z,11.70
2017-11-23T11:06:26.307Z,11.80
2017-11-23T11:08:54.606Z,11.80
2017-11-23T11:11:22.124Z,11.80
2017-11-23T11:13:49.682Z,11.90
2017-11-23T11:16:17.966Z,12.20
2017-11-23T11:18:46.242Z,12.50
2017-11-23T11:21:14.546Z,12.60
2017-11-23T11:26:16.053Z,12.70
2017-11-23T11:28:43.595Z,13.00
2017-11-23T11:31:11.119Z,13.10
2017-11-23T11:33:39.402Z,13.20
2017-11-23T11:36:07.720Z,13.10
2017-11-23T11:38:35.243Z,13.10
2017-11-23T11:41:02.765Z,13.10
2017-11-23T11:43:30.299Z,13.10
2017-11-23T11:45:57.810Z,13.10
2017-11-23T11:48:25.360Z,13.20
2017-11-23T11:50:53.647Z,13.10
2017-11-23T11:53:21.925Z,13.10
2017-11-23T11:55:50.250Z,13.10
2017-11-23T11:58:17.815Z,13.00
2017-11-23T12:00:45.337Z,13.00
2017-11-23T12:03:12.883Z,13.10
2017-11-23T12:05:40.411Z,13.20
2017-11-23T12:08:07.917Z,13.20
2017-11-23T12:10:35.459Z,13.20
2017-11-23T12:13:02.982Z,13.30
2017-11-23T12:15:36.835Z,13.30
2017-11-23T12:18:17.009Z,13.40
2017-11-23T12:41:40.457Z,13.50
2017-11-23T12:44:07.970Z,13.50
2017-11-23T12:46:35.483Z,13.60
2017-11-23T12:49:03.027Z,13.50
2017-11-23T12:51:30.576Z,13.60
2017-11-23T12:53:58.116Z,13.70
2017-11-23T12:56:25.678Z,13.60
2017-11-23T12:58:53.222Z,13.60
2017-11-23T13:01:21.503Z,13.50
2017-11-23T13:03:49.033Z,13.50
2017-11-23T13:06:17.345Z,13.50
2017-11-23T13:08:44.861Z,13.50
2017-11-23T13:11:12.374Z,13.50
2017-11-23T13:13:39.947Z,13.60
2017-11-23T13:16:07.464Z,13.70
2017-11-23T13:18:35.743Z,13.80
2017-11-23T13:21:04.056Z,13.80
2017-11-23T13:23:31.575Z,13.80
2017-11-23T13:35:55.370Z,13.70
2017-11-23T13:38:22.890Z,13.60
2017-11-23T13:40:51.157Z,13.70
2017-11-23T13:43:18.692Z,13.60
2017-11-23T13:45:46.213Z,13.60
2017-11-23T13:48:13.723Z,13.60
2017-11-23T13:50:41.255Z,13.60
2017-11-23T13:53:08.766Z,13.60
2017-11-23T13:55:37.080Z,13.50
2017-11-23T13:58:04.586Z,13.50
2017-11-23T14:00:32.866Z,13.60
2017-11-23T14:03:00.402Z,13.50
2017-11-23T14:05:27.919Z,13.50
2017-11-23T14:07:55.458Z,13.50
2017-11-23T14:10:23.740Z,13.50
2017-11-23T14:12:51.251Z,13.50
2017-11-23T14:15:18.810Z,13.50
2017-11-23T14:17:46.322Z,13.40
2017-11-23T14:20:13.843Z,13.30
2017-11-23T14:22:41.391Z,13.30
2017-11-23T14:25:08.900Z,13.30
2017-11-23T14:27:37.176Z,13.20
2017-11-23T14:30:04.709Z,13.20
2017-11-23T14:32:32.228Z,13.20
2017-11-23T14:34:59.766Z,13.20
2017-11-23T14:37:27.316Z,13.20
2017-11-23T14:39:54.890Z,13.20
2017-11-23T14:42:38.083Z,13.20
2017-11-23T14:45:06.432Z,13.10
2017-11-23T14:47:34.027Z,13.10
2017-11-23T14:50:02.330Z,13.00
2017-11-23T14:52:30.534Z,13.00
2017-11-23T14:54:58.041Z,13.00
2017-11-23T14:57:26.536Z,12.90
2017-11-23T14:59:54.813Z,12.90
2017-11-23T15:02:23.090Z,12.90
2017-11-23T15:04:51.399Z,12.80
2017-11-23T15:07:18.948Z,12.80
2017-11-23T15:09:46.454Z,12.70
2017-11-23T15:12:13.996Z,12.70
2017-11-23T15:14:41.502Z,12.60
2017-11-23T15:17:09.020Z,12.60
2017-11-23T15:19:36.560Z,12.60
2017-11-23T15:22:04.071Z,12.60
2017-11-23T15:24:31.593Z,12.50
2017-11-23T15:26:59.155Z,12.40
2017-11-23T15:29:26.690Z,12.50
2017-11-23T15:31:54.193Z,12.40
2017-11-23T15:34:21.751Z,12.30
2017-11-23T15:36:49.261Z,12.30
2017-11-23T15:39:16.807Z,12.20
2017-11-23T15:41:44.355Z,12.20
2017-11-23T15:44:11.871Z,12.20
2017-11-23T15:46:39.381Z,12.20
2017-11-23T15:49:07.675Z,12.10
2017-11-23T15:51:35.204Z,12.00
2017-11-23T15:54:02.747Z,12.00
2017-11-23T15:56:30.259Z,12.00
2017-11-23T15:58:57.796Z,12.00
2017-11-23T16:01:25.355Z,11.90
2017-11-23T16:03:52.881Z,11.90
2017-11-23T16:06:20.395Z,11.90
2017-11-23T16:08:47.947Z,11.80
2017-11-23T16:11:15.459Z,11.70
2017-11-23T16:13:42.976Z,11.80
2017-11-23T16:16:10.516Z,11.70
2017-11-23T16:18:38.799Z,11.60
2017-11-23T16:21:07.114Z,11.60
2017-11-23T16:23:34.641Z,11.50
2017-11-23T16:26:02.156Z,11.50
2017-11-23T16:28:29.713Z,11.50
2017-11-23T16:30:57.235Z,11.40
2017-11-23T16:33:24.779Z,11.40
2017-11-23T16:35:52.317Z,11.40
2017-11-23T16:38:25.554Z,11.40
2017-11-23T16:40:53.089Z,11.30
2017-11-23T16:43:21.147Z,11.30
2017-11-23T16:46:09.089Z,11.20
2017-11-23T17:02:09.940Z,11.10
2017-11-23T17:18:10.677Z,10.80
2017-11-23T17:42:58.545Z,10.80
2017-11-23T17:45:26.965Z,10.50
2017-11-23T17:47:54.637Z,10.50
2017-11-23T17:50:22.182Z,10.40
2017-11-23T17:52:49.736Z,10.40
2017-11-23T17:55:18.028Z,10.40
2017-11-23T17:57:45.552Z,10.40
2017-11-23T18:02:47.014Z,10.40
2017-11-23T18:05:15.354Z,10.30
2017-11-23T18:07:43.684Z,10.40
2017-11-23T18:10:11.276Z,10.40
2017-11-23T18:12:38.836Z,10.40
2017-11-23T18:15:07.146Z,10.30
2017-11-23T18:17:34.649Z,10.30
2017-11-23T18:20:02.237Z,10.30
2017-11-23T18:22:29.786Z,10.20
2017-11-23T18:24:57.300Z,10.20
2017-11-23T18:27:25.619Z,10.10
2017-11-23T18:29:53.132Z,10.10
2017-11-23T18:32:21.409Z,10.10
2017-11-23T18:34:50.592Z,10.00
2017-11-23T18:37:18.146Z,10.00
2017-11-23T18:39:45.646Z,10.00
2017-11-23T18:42:13.950Z,9.90
2017-11-23T18:44:41.467Z,9.80
2017-11-23T18:47:08.987Z,9.90
2017-11-23T18:49:36.534Z,9.80
2017-11-23T18:52:04.046Z,9.80
